Squad war stats
Faction Empire
Rank 3764
TrueSkill™ 22,034
Reputation 18,395
Wars 280
Wins 218
Draws 38
Losses 24
Uplinks captured 11,949
Uplinks saved 5,621
Last updated 25 minutes ago
Mu 29.129
Sigma 2.027
Last War 102d
Current War none
Battle history
Date Opp. skill Opponent Result Score Opp. score Skill result Skill before Mu before Sigma before
2018-12-13 96% n7eclipse DRAW 44 44 -601 29705 29.740 0.010
2018-12-05 99% SkywalkersPride DRAW 45 45 0 29717 29.740 0.007
2018-12-01 96% Jedi-Rebellion LOSS 33 45 -1 29718 29.741 0.007
2018-11-29 90% Rebelles_france LOSS 37 38 0 29718 29.741 0.007
2018-11-21 52% Rebel-Alliance- WIN 45 3 0 29718 29.741 0.007
2018-11-19 95% Templar_Jedi DRAW 45 45 0 29718 29.741 0.007
2018-11-17 96% W.A.R.Jedi DRAW 45 45 0 29718 29.741 0.007
2018-11-15 85% Franc-Tireur WIN 45 39 0 29718 29.741 0.007
2018-11-13 96% Jedi-Rebellion DRAW 45 45 0 29718 29.741 0.007
2018-11-11 99% Marauders-Echo30 LOSS 36 39 -1 29719 29.742 0.007
2018-11-09 89% JediProphecy WIN 42 20 0 29719 29.742 0.007
2018-11-07 96% BRASIL-DOS-JEDIS DRAW 45 45 0 29719 29.742 0.007
2018-11-05 98% ShadyRebels24 LOSS 42 45 0 29719 29.742 0.007
2018-11-02 96% HowlingWookie's DRAW 45 45 0 29719 29.742 0.007
2018-10-31 97% FORCE3K_Academy WIN 41 38 0 29719 29.742 0.007
2018-10-28 95% new-active-rebel WIN 45 30 0 29719 29.742 0.007
2018-10-26 95% Sudamerican_jedi DRAW 45 45 0 29719 29.742 0.007
2018-10-24 94% RUCOSJEDI DRAW 45 45 0 29719 29.742 0.007
2018-10-22 95% IncognitoRebelS WIN 45 11 0 29719 29.742 0.007
2018-10-20 94% FriendsofOB1 WIN 45 0 0 29719 29.742 0.007
2018-10-17 98% Marauders-Echo30 LOSS 35 42 0 29719 29.742 0.007
2018-10-14 94% TaiwanSeraphim DRAW 45 45 0 29719 29.742 0.007
2018-10-12 99% BigLeagueChewie LOSS 40 41 -19 29738 29.762 0.007
2018-10-10 90% Brasil(RJ) DRAW 45 45 0 29738 29.762 0.007
2018-10-05 95% BOMBSQUAD WIN 43 11 0 29738 29.762 0.007
2018-10-03 95% Solo'sRenagades WIN 45 20 0 29738 29.762 0.007
2018-09-30 95% Empire's_end WIN 45 34 0 29738 29.762 0.007
2018-09-28 95% YAVIN4 WIN 43 18 0 29738 29.762 0.007
2018-09-26 95% battlefrontwindu WIN 45 6 0 29738 29.762 0.007
2018-09-19 100% Fire_and_Ice LOSS 38 45 -1 29739 29.763 0.007
2018-09-17 86% Jedi-Rebellion DRAW 45 45 0 29739 29.763 0.007
2018-09-15 85% Fullsupport WIN 45 3 0 29739 29.763 0.007
2018-09-13 96% JEDI.NIGHTS DRAW 45 45 0 29739 29.763 0.007
2018-09-10 95% Charlies_boys WIN 45 19 0 29739 29.763 0.007
2018-09-08 81% RebelS WIN 45 12 0 29739 29.763 0.007
2018-09-03 95% FinnLuke WIN 45 4 0 29739 29.763 0.007
2018-09-01 94% Marauders-Alpha WIN 39 31 0 29739 29.763 0.007
2018-08-29 98% NewOrder-Jedi LOSS 38 39 -1 29740 29.764 0.007
2018-08-26 92% JediKnight-SW DRAW 45 45 0 29740 29.764 0.007
2018-08-24 96% FILIPINO™FARMERS WIN 45 3 0 29740 29.764 0.007
2018-08-21 92% JEDI-WATCHMEN WIN 45 34 0 29740 29.764 0.007
2018-08-17 97% BlackWingRising WIN 45 41 0 29740 29.764 0.007
2018-08-15 87% Matrixrebel16 WIN 45 11 0 29740 29.764 0.007
2018-08-09 94% n7eclipse WIN 45 36 0 29740 29.764 0.007
2018-08-05 87% goodset2 WIN 45 0 0 29740 29.764 0.007
2018-08-01 86% StingrayCo WIN 45 22 0 29740 29.764 0.007
2018-07-29 96% Padawans-LF WIN 45 15 0 29740 29.764 0.007
2018-07-27 98% MiserySquad1E DRAW 45 45 0 29740 29.764 0.007
2018-07-24 95% Cuartel_General WIN 45 26 0 29740 29.764 0.007
2018-07-21 89% Deutsch'15 WIN 45 44 0 29740 29.764 0.007
2018-07-19 94% TheOriginalJedi WIN 45 29 0 29740 29.764 0.007
2018-07-17 95% Polska--Rebelia WIN 45 35 0 29740 29.764 0.007
2018-07-15 94% SeattleRebels WIN 45 6 0 29740 29.764 0.007
2018-07-13 96% RUCOSJEDI WIN 37 32 0 29740 29.764 0.007
2018-07-10 93% Jedi_Brigada WIN 43 23 0 29740 29.764 0.007
2018-07-08 98% Sudamerican_jedi WIN 45 41 0 29740 29.764 0.007
2018-07-05 99% Force_Unleashed DRAW 41 41 -26 29766 29.791 0.007
2018-07-03 97% OZZY-ELITE WIN 39 16 0 29766 29.791 0.007
2018-06-30 93% WookieWarWagon WIN 45 11 0 29766 29.791 0.007
2018-06-28 93% Galaxy-Alliance1 WIN 45 2 0 29766 29.791 0.007
2018-06-25 96% DejavuChaos WIN 40 36 0 29766 29.791 0.007
2018-06-20 98% ~FORCE~ WIN 37 36 0 29766 29.791 0.007
2018-06-17 96% USA-Rebel-Adults WIN 45 39 0 29766 29.791 0.007
2018-06-15 98% Marauders-Alpha WIN 38 33 0 29766 29.791 0.007
2018-06-13 99% Blackwingrisque WIN 38 32 0 29766 29.791 0.007
2018-06-11 100% Wraith][Squadron DRAW 45 45 0 29766 29.791 0.007
2018-06-08 98% .REPÚBLICA-JEDI. DRAW 45 45 0 29766 29.791 0.007
2018-06-06 95% РоссиЯ WIN 45 18 0 29766 29.791 0.007
2018-06-04 100% SpaceBarons WIN 38 29 0 29766 29.791 0.007
2018-06-02 96% Badger-Legion WIN 45 0 0 29766 29.791 0.007
2018-05-31 91% StingrayCo WIN 45 43 0 29766 29.791 0.007
2018-05-29 96% 504thclones WIN 38 29 0 29766 29.791 0.007
2018-05-26 88% Vegeta WIN 45 8 0 29766 29.791 0.007
2018-05-19 101% havoc_jedi WIN 38 36 +47 29719 29.746 0.008
2018-05-17 98% ~FORCE~ WIN 40 30 0 29719 29.746 0.008
2018-05-14 95% W.A.R.Academy WIN 45 44 0 29719 29.746 0.008
2018-05-11 97% Elite_Jedi_Crew WIN 45 21 +1 29718 29.746 0.008
2018-05-09 91% JEDIKNIGHT DRAW 45 45 0 29718 29.746 0.008
2018-05-07 95% FILIPINO™FARMERS WIN 45 1 0 29718 29.746 0.008
2018-05-04 91% BattleRaxBrigade WIN 44 3 0 29718 29.746 0.008
2018-05-02 98% Chile-Sur WIN 45 38 0 29718 29.746 0.008
2018-04-29 82% Yoda's..warriors WIN 45 1 0 29718 29.746 0.008
2018-04-27 97% JEDI.NIGHTS WIN 43 35 0 29718 29.746 0.008
2018-04-25 90% POLSKA--WIN-905 WIN 45 13 0 29718 29.746 0.008
2018-04-23 94% RebelS WIN 45 7 0 29718 29.746 0.008
2018-04-21 99% Rogue-Squadron LOSS 37 44 -29 29747 29.778 0.009
2018-04-18 101% BattleRax DRAW 45 45 0 29747 29.778 0.009
2018-04-16 97% Rebel'Horde DRAW 45 45 0 29747 29.778 0.009
2018-04-14 85% Wolfsreiter WIN 45 30 0 29747 29.778 0.009
2018-04-11 96% RefugiadosWalker WIN 45 19 0 29747 29.778 0.009
2018-04-09 101% Russkaya_Sila LOSS 40 43 0 29747 29.778 0.009
2018-04-06 96% Marauders-Alpha WIN 41 30 0 29747 29.777 0.009
2018-04-03 101% FalloftheEmpire DRAW 33 33 +129 29618 29.666 0.013
2018-04-01 95% Light-This-Force WIN 45 8 0 29618 29.666 0.013
2018-03-26 97% RedBak-Battalion WIN 37 30 0 29618 29.665 0.014
2018-03-22 98% Havoc_Legends WIN 45 33 0 29618 29.665 0.014
2018-03-19 101% Stingray-Ultras LOSS 28 42 0 29618 29.665 0.014
2018-03-16 100% Blackwingrebels WIN 45 41 +2 29616 29.665 0.014
2018-03-13 96% Phoenixrise WIN 45 3 0 29616 29.665 0.014
2018-03-11 97% Brasil(RJ) WIN 45 44 0 29616 29.664 0.014
2018-03-07 96% RebelApocalypse WIN 45 3 0 29616 29.664 0.014
2018-03-04 100% W.A.R.Heroes DRAW 44 44 +5 29611 29.660 0.014
2018-03-02 103% Force_Unleashed WIN 41 36 +498 29113 29.193 0.023
2018-02-28 99% Donate-n-Strike WIN 41 29 +5 29108 29.188 0.023
2018-02-25 85% GermaN WIN 45 9 0 29108 29.188 0.023
2018-02-23 98% HooversRebellion WIN 39 20 0 29108 29.188 0.023
2018-02-21 100% JEDI.NIGHTS WIN 45 32 0 29108 29.188 0.023
2018-02-18 96% Galactictyphoon WIN 45 20 0 29108 29.188 0.023
2018-02-16 99% FrenchRebel WIN 45 23 0 29108 29.188 0.023
2018-02-13 100% _UnNamed_ WIN 45 33 +9 29099 29.179 0.023
2018-02-10 102% Ackbar_Awakens WIN 37 28 +31 29068 29.150 0.023
2018-02-05 99% SPAIN-REBELS WIN 43 18 0 29068 29.150 0.023
2018-02-02 81% Rogue_Ice DRAW 45 45 0 29068 29.150 0.023
2018-01-28 96% РУССКИЕ_ВМЕСТЕ LOSS 36 45 -1,114 30182 30.694 0.146
2018-01-26 95% TheWetKitties WIN 44 0 0 30182 30.694 0.146
2018-01-23 96% Light-This-Force WIN 45 8 0 30182 30.694 0.146
2018-01-19 93% JAPANチーム WIN 45 8 0 30182 30.694 0.146
2018-01-17 95% Angband WIN 45 5 0 30182 30.694 0.146
2018-01-14 95% JediJumpCrew WIN 45 28 0 30182 30.694 0.146
2018-01-12 95% RancorRoughnecks WIN 45 5 0 30182 30.694 0.146
2018-01-08 99% KenobiForce WIN 35 21 0 30182 30.694 0.146
2018-01-02 99% Elite-Chaos WIN 45 43 0 30182 30.694 0.146
2017-12-30 94% CheechClan WIN 45 28 0 30182 30.694 0.146
2017-12-28 96% Phoenixrise WIN 45 7 0 30182 30.694 0.146
2017-12-25 97% Britain2.0 WIN 44 27 0 30182 30.694 0.146
2017-12-22 95% RefugiadosWalker WIN 45 32 0 30182 30.694 0.146
2017-12-18 96% FILIPINO™FARMERS WIN 45 14 0 30182 30.694 0.146
2017-12-16 93% Bayern-Rebellen WIN 45 22 0 30182 30.694 0.146
2017-12-12 92% Rebelles_Gaulois WIN 44 23 0 30182 30.694 0.146
2017-12-08 97% Deutsch-Aktiv WIN 36 33 0 30182 30.694 0.146
2017-12-04 107% IngloriousRebėls LOSS 18 45 0 30182 30.694 0.146
2017-12-02 96% RebelDonate WIN 45 23 0 30182 30.694 0.146
2017-11-29 96% BlueSaberJedi WIN 45 14 +29 30153 30.678 0.150
2017-11-26 105% Stingray LOSS 34 43 0 30153 30.678 0.150
2017-11-22 98% RussianRedArmy DRAW 45 45 0 30153 30.678 0.150
2017-11-19 96% Iron_Rebels_Zeta WIN 45 10 0 30153 30.678 0.150
2017-11-17 95% RUS-ВИТЯЗИacadem WIN 45 22 0 30153 30.678 0.150
2017-11-14 97% BattleRaxFury WIN 43 15 0 30153 30.678 0.150
2017-11-11 98% theCave WIN 45 21 0 30153 30.678 0.150
2017-11-08 90% DoNatingBasterdz WIN 45 4 0 30153 30.678 0.150
2017-11-06 99% BattleRax WIN 45 43 +47 30106 30.665 0.160
2017-11-03 98% Lions-Battalion DRAW 45 45 0 30106 30.665 0.160
2017-10-31 99% havoc_rebellion DRAW 45 45 0 30106 30.665 0.160
2017-10-27 100% TeamGibson DRAW 45 45 0 30106 30.665 0.160
2017-10-24 95% Wolfsreiter WIN 45 34 0 30106 30.665 0.160
2017-10-21 93% FENIX_ESCUADRON WIN 44 1 0 30106 30.665 0.160
2017-10-18 96% Jedi-diah WIN 45 41 0 30106 30.665 0.160
2017-10-16 95% REBEL_MASTERS WIN 45 31 0 30106 30.665 0.160
2017-10-13 97% Spartan_Rebels WIN 45 10 0 30106 30.665 0.160
2017-10-10 96% DejavuWarriors WIN 42 37 +14 30092 30.659 0.162
2017-10-06 95% OdinsRavens WIN 45 2 0 30092 30.659 0.162
2017-10-03 107% Havoc_Sentinels LOSS 29 41 0 30092 30.659 0.162
2017-10-01 96% OldRepublic6 WIN 45 2 0 30092 30.659 0.162
2017-09-12 98% NORWAY WIN 43 28 0 30092 30.659 0.162
2017-09-10 96% Japan-skywalkers WIN 44 2 0 30092 30.659 0.162
2017-09-08 96% JEDI.NIGHTS WIN 45 6 0 30092 30.659 0.162
2017-09-06 98% n7eclipse WIN 45 44 0 30092 30.659 0.162
2017-09-03 95% BlackWing][Elite WIN 44 24 0 30092 30.659 0.162
2017-09-01 90% Deutsch(DE) WIN 43 24 +9 30083 30.654 0.163
2017-08-30 97% et.tu.Brute WIN 45 34 0 30083 30.654 0.163
2017-08-28 96% Singapore_Jedi WIN 45 0 0 30083 30.654 0.163
2017-08-26 100% JediRebellion DRAW 45 45 0 30083 30.654 0.163
2017-08-24 97% Force-awakens WIN 37 11 0 30083 30.654 0.163
2017-08-21 96% Rebels'' WIN 40 0 0 30083 30.654 0.163
2017-08-19 100% W.A.R.Jedi WIN 34 32 +214 29869 30.510 0.183
2017-08-17 97% Rebel's-Prime WIN 45 0 0 29869 30.510 0.183
2017-08-15 98% Havoc_RAJC WIN 45 34 +1 29868 30.509 0.183
2017-08-12 99% SKULL_SQUADRON WIN 45 40 +82 29786 30.482 0.199
2017-08-10 94% silverbullet WIN 45 0 0 29786 30.482 0.199
2017-08-08 99% Seekers_Of_Light WIN 45 19 +16 29770 30.479 0.202
2017-08-05 95% Catalunya50 WIN 45 3 0 29770 30.479 0.202
2017-08-03 95% French_kiss WIN 45 2 +5 29765 30.477 0.203
2017-08-01 100% BrasilBrasukas WIN 42 27 +291 29474 30.344 0.249
2017-07-29 97% SenateGuards WIN 45 27 0 29474 30.344 0.249
2017-07-27 89% Rebel-striker WIN 45 2 +1 29473 30.344 0.249
2017-07-25 96% Jedi'battle WIN 45 2 0 29473 30.344 0.249
2017-07-23 97% ElvenRebels DRAW 45 45 0 29473 30.344 0.249
2017-07-21 96% TheMorningMob WIN 45 38 +4 29469 30.343 0.250
2017-07-18 97% JediTempleBlue DRAW 45 45 0 29469 30.343 0.250
2017-07-16 97% Han's_Scoundrels WIN 36 34 +42 29427 30.329 0.258
2017-07-13 99% Rebel'Command WIN 40 22 +147 29280 30.277 0.285
2017-07-11 97% AustralianDigger WIN 45 1 +2 29278 30.276 0.285
2017-07-08 94% Templar_Jedi WIN 45 37 +48 29230 30.256 0.293
2017-07-06 100% New-Omega-Chaos WIN 45 32 +411 28819 30.074 0.359
2017-07-03 99% Empire's_end WIN 41 4 +259 28735 29.975 0.354
2017-07-01 98% 01Roguesquadron WIN 45 4 +82 28688 29.952 0.361
2017-06-28 98% Xwingfalcons WIN 45 14 +91 28667 29.927 0.360
2017-06-26 98% Ackbar's_Cantina WIN 45 28 +137 28635 29.885 0.357
2017-06-23 100% Dangerous777 WIN 45 11 +228 28547 29.810 0.361
2017-06-21 98% PiratesLife4me WIN 41 12 +81 28536 29.789 0.358
2017-06-19 98% Solo's_Band WIN 45 0 +48 28558 29.777 0.348
2017-06-15 100% FRANCE-ADDIXION DRAW 45 45 0 28663 29.777 0.318
2017-06-12 100% Marauders-Bravo LOSS 37 45 +16 28787 29.975 0.339
2017-06-05 95% newjediorder~ WIN 45 10 +20 28942 29.969 0.293
2017-06-01 100% PartyLikeLando DRAW 19 19 +349 28803 29.941 0.325
2017-05-28 99% KenobiForce WIN 45 43 +172 28771 29.887 0.319
2017-05-23 99% LongLivTheRebels WIN 45 28 +68 28843 29.870 0.293
2017-05-17 102% W.A.R.Yoda LOSS 35 39 +21 29032 29.891 0.245
2017-05-14 99% .REPÚBLICA-JEDI. WIN 42 25 +39 29063 29.882 0.234
2017-05-11 97% Rogue's_Gallery WIN 45 22 0 29238 29.882 0.184
2017-05-07 97% Killer'_Squad WIN 45 5 0 29378 29.882 0.144
2017-05-04 100% TeamGibson WIN 38 25 +159 29289 29.806 0.148
2017-04-28 108% ULTRAS-Reborn LOSS 34 39 0 29534 29.806 0.078
2017-04-25 98% capsule-corps WIN 43 0 0 29604 29.806 0.058
2017-04-22 98% Donate-or-leave2 WIN 45 0 0 29744 29.806 0.018
2017-04-19 97% JEDI'S_REVENGE WIN 45 0 0 29744 29.806 0.018
2017-04-16 98% SwiftResistance WIN 45 41 0 29744 29.806 0.018
2017-04-12 99% DETROIT♤players WIN 43 22 0 29744 29.806 0.018
2017-04-07 101% havoc_mafia LOSS 33 40 0 29744 29.806 0.018
2017-04-02 99% BloodyRebellion WIN 45 24 0 29744 29.806 0.018
2017-03-30 98% JOINT-TASK-FORCE WIN 45 18 0 29744 29.806 0.018
2017-03-27 99% Deutsch+aktiv WIN 37 23 0 29744 29.806 0.018
2017-03-24 99% HavocRebelRebelz WIN 43 6 0 29744 29.806 0.018
2017-03-21 99% OmegaSociety WIN 36 26 0 29744 29.806 0.018
2017-03-16 98% Lothaloutpost WIN 45 0 0 29744 29.806 0.018
2017-03-13 99% DejavuPortal WIN 44 14 0 29744 29.806 0.018
2017-03-08 99% YAVIN8 WIN 35 13 0 29744 29.806 0.018
2017-03-03 99% waldoville WIN 41 34 0 29744 29.806 0.018
2017-02-28 99% H-A-V-O-K WIN 45 12 0 29744 29.806 0.018
2017-02-20 95% Catalunya-lliure WIN 45 0 0 29744 29.806 0.018
2017-02-16 98% WookieWarWagon WIN 45 16 0 29744 29.806 0.018
2017-02-08 99% 3MPiRE WIN 42 27 0 29744 29.806 0.018
2017-02-04 101% Iron_Rebels_Elit WIN 35 33 +67 29677 29.744 0.019
2017-01-28 100% Jedi'Jawas WIN 29 11 0 29677 29.744 0.019
2017-01-21 97% Anakins-warriors WIN 37 2 0 29677 29.744 0.019
2017-01-19 100% Force-awakens WIN 45 13 +14 29663 29.739 0.022
2017-01-16 100% Ackbars_Admirals DRAW 38 38 -9 29672 29.813 0.040
2017-01-13 97% SpaceMiners LOSS 35 42 -703 30375 30.713 0.097
2017-01-10 96% kiwi.squad WIN 45 18 0 30375 30.713 0.097
2017-01-06 96% BRASIL(CWB)WAR.. WIN 43 24 0 30375 30.713 0.097
2017-01-03 97% Donate-n-Strike DRAW 45 45 0 30375 30.713 0.097
2016-12-28 96% GermanBullskulls WIN 45 14 0 30375 30.713 0.097
2016-12-20 98% havoc_u4ea WIN 42 12 0 30375 30.713 0.097
2016-12-14 95% JediProphecy WIN 45 37 0 30375 30.713 0.097
2016-12-08 96% Redneck-path WIN 45 15 0 30375 30.713 0.097
2016-12-06 97% TheForce'sHand WIN 45 3 0 30375 30.713 0.097
2016-12-02 91% Marauders-Alpha LOSS 37 38 -2,584 32959 33.880 0.263
2016-11-30 90% SniperElite WIN 40 15 0 32959 33.880 0.263
2016-11-28 87% LatinoFamily WIN 45 16 0 32959 33.880 0.263
2016-11-25 81% FrancEvolution1 WIN 43 25 0 32959 33.880 0.263
2016-11-22 98% PartylikePorkins WIN 37 32 +154 32805 33.819 0.290
2016-11-19 91% OmegaSociety WIN 42 35 0 32805 33.819 0.290
2016-11-16 88% YodasMarines WIN 39 11 0 32805 33.819 0.290
2016-11-14 89% Evil_Corp WIN 44 5 0 32805 33.819 0.290
2016-11-12 89% LONDON-DS-UK WIN 45 2 0 32805 33.819 0.290
2016-11-08 89% Alliance_HQ WIN 45 14 0 32805 33.819 0.290
2016-11-05 86% Cosmoknights WIN 45 4 0 32805 33.819 0.290
2016-10-30 87% jedi_wraith WIN 45 4 0 32805 33.819 0.290
2016-10-27 97% RebeL LOSS 27 37 -566 33371 35.201 0.523
2016-10-22 88% NEW_EMPIRE WIN 45 21 0 33371 35.201 0.523
2016-10-19 92% Zeta-Chaos WIN 40 26 0 33371 35.201 0.523
2016-10-16 91% havoc_mafia WIN 45 33 0 33371 35.201 0.523
2016-10-12 88% Shadow☆Company2 WIN 45 13 0 33371 35.201 0.523
2016-10-09 90% BattleRax WIN 45 23 0 33371 35.201 0.523
2016-10-06 84% TyrannicalEmpire WIN 45 25 0 33371 35.201 0.523
2016-10-03 94% PartylikePorkins LOSS 39 41 -627 33998 36.454 0.702
2016-10-01 89% German's-Allianz WIN 40 32 0 33998 36.454 0.702
2016-09-25 86% n7specters WIN 41 25 0 33998 36.454 0.702
2016-09-21 91% BarefootPhoenix WIN 41 15 0 33998 36.454 0.702
2016-09-15 103% Marauders-Echo30 WIN 42 38 +1,476 32522 35.555 0.867
2016-09-13 93% BattleRax WIN 45 36 +1 32521 35.555 0.867
2016-09-10 102% Jedi_Remnant WIN 43 33 +1,362 31159 34.984 1.093
2016-09-07 99% España-Rebels WIN 44 24 +1,205 29954 34.507 1.301
2016-09-05 74% AWookieNation WIN 45 23 +8 29946 34.505 1.303
2016-08-31 90% Deutsche-Falken LOSS 29 40 -2,155 32101 40.346 2.356
2016-08-29 60% Jedi'Order WIN 45 8 0 32101 40.346 2.356
2016-08-23 75% KushKommandos WIN 45 14 +1 32100 40.345 2.356
2016-08-19 89% SONS_OF_DEATH WIN 45 39 +389 31711 40.251 2.440
2016-08-12 90% SONS_OF_DEATH WIN 45 25 +524 31187 40.118 2.552
2016-08-08 95% Rogue's_Gallery WIN 45 4 +1,734 29453 39.542 2.883
2016-08-03 101% PartyLikeLando DRAW 45 45 0 29453 39.542 2.883
2016-07-27 66% FrancEvolution1 WIN 45 29 +1,688 27765 38.685 3.120
2016-07-23 101% Ackbar_Awakens DRAW 45 45 0 27765 38.685 3.120
2016-07-19 108% NewOrder-Jedi WIN 45 41 +4,708 23057 36.713 3.902
2016-07-14 112% FalloftheEmpire DRAW 45 45 0 23057 36.713 3.902
2016-07-08 78% Wmuk-chaos-squad WIN 45 2 +3,013 20044 35.529 4.424
2016-07-04 64% French_kiss WIN 45 29 +3,131 16913 34.302 4.969
2016-07-02 52% Nova.Alianca.Br WIN 45 1 +2,273 14640 33.567 5.408
2016-06-29 217% DEUTSCH(^_^) WIN 45 12 +10,274 4366 28.490 6.893
2016-06-26 100% Poland_team WIN 45 13 +4,366 0 25.000 8.333
*Note: Wars from before June 22nd 2016 are not included.